Terminal Aerodrome Forecast
Issued by NWS Atlanta, GA

Home | Current Version | Previous Version | Text Only | Print | Product List | Glossary On
Versions: 1 2 3 4 5 6 7 8 9 10 11 12 13 14 15 16 17 18 19 20 21 22 23 24 25 26 27 28 29 30 31 32 33 34 35 36 37 38 39 40 41
130
FTUS42 KFFC 220536
TAFAHN
TAF
KAHN 220536Z 2206/2306 VRB03KT 1/2SM FG OVC002
     FM220800 14004KT 2SM -RA BR OVC004
     FM220900 17006KT 2SM TSRA BR OVC007CB
     FM221500 20010KT P6SM VCSH BKN015 PROB30 2219/2223 VRB15G30KT
      3SM TSRA BKN009CB
     FM230000 23012KT 5SM -RA BR BKN025 BKN150=

USA.gov is the U.S. government's official web portal to all federal, state and local government web resources and services.